createdAt,value
2023-03-06T00:01:11.597Z,3.15
2023-03-06T00:05:08.618Z,3.00
2023-03-06T00:10:08.350Z,3.00
2023-03-06T00:15:08.422Z,3.00
2023-03-06T00:20:08.495Z,3.28
2023-03-06T00:25:08.559Z,2.53
2023-03-06T00:30:08.641Z,2.72
2023-03-06T00:35:08.697Z,2.78
2023-03-06T00:40:08.720Z,2.47
2023-03-06T00:45:08.784Z,2.85
2023-03-06T00:50:08.884Z,3.30
2023-03-06T00:55:08.880Z,3.67
2023-03-06T01:00:08.996Z,3.85
2023-03-06T01:05:08.048Z,4.65
2023-03-06T01:10:08.175Z,5.50
2023-03-06T01:15:08.319Z,4.65
2023-03-06T01:20:08.426Z,4.75
2023-03-06T01:25:08.496Z,4.70
2023-03-06T01:30:08.770Z,5.00
2023-03-06T01:35:08.882Z,5.13
2023-03-06T01:40:08.938Z,5.13
2023-03-06T01:45:07.972Z,5.20
2023-03-06T01:50:08.027Z,6.25
2023-03-06T01:55:08.129Z,6.40
2023-03-06T02:00:08.174Z,5.70
2023-03-06T02:05:08.246Z,6.50
2023-03-06T02:10:08.313Z,6.78
2023-03-06T02:15:08.404Z,7.40
2023-03-06T02:20:18.482Z,0
2023-03-06T02:25:08.497Z,7.93
2023-03-06T02:30:08.529Z,7.05
2023-03-06T02:35:08.577Z,7.53
2023-03-06T02:40:08.630Z,7.25
2023-03-06T02:45:08.757Z,7.15
2023-03-06T02:50:08.791Z,7.70
2023-03-06T02:55:08.873Z,8.50
2023-03-06T03:00:08.919Z,8.00
2023-03-06T03:05:08.973Z,8.10
2023-03-06T03:10:08.026Z,8.57
2023-03-06T03:15:08.088Z,8.68
2023-03-06T03:20:08.162Z,9.80
2023-03-06T03:25:08.196Z,8.98
2023-03-06T03:30:08.301Z,9.23
2023-03-06T03:35:08.363Z,8.35
2023-03-06T03:40:08.467Z,9.40
2023-03-06T03:45:08.594Z,9.95
2023-03-06T03:50:08.675Z,9.65
2023-03-06T03:55:08.740Z,8.23
2023-03-06T04:00:08.893Z,7.70
2023-03-06T04:05:08.980Z,8.35
2023-03-06T04:10:08.148Z,9.85
2023-03-06T04:15:08.213Z,8.95
2023-03-06T04:20:08.225Z,8.40
2023-03-06T04:25:08.270Z,8.30
2023-03-06T04:30:08.341Z,7.07
2023-03-06T04:35:08.389Z,7.28
2023-03-06T04:40:08.427Z,8.10
2023-03-06T04:45:08.503Z,7.10
2023-03-06T04:50:08.601Z,7.32
2023-03-06T04:55:08.667Z,7.80
2023-03-06T05:00:08.691Z,8.20
2023-03-06T05:05:03.021Z,7.70
2023-03-06T05:10:02.212Z,8.05
2023-03-06T05:15:02.435Z,8.10
2023-03-06T05:20:02.611Z,8.13
2023-03-06T05:25:02.981Z,8.23
2023-03-06T05:30:02.118Z,7.63
2023-03-06T05:35:02.436Z,8.27
2023-03-06T05:40:02.628Z,8.20
2023-03-06T05:45:02.886Z,8.80
2023-03-06T05:50:03.078Z,8.70
2023-03-06T05:55:02.396Z,9.15
2023-03-06T06:00:02.805Z,10.15
2023-03-06T06:05:03.229Z,10.02
2023-03-06T06:10:03.893Z,9.20
2023-03-06T06:15:02.165Z,9.85
2023-03-06T06:20:02.431Z,10.10
2023-03-06T06:25:02.782Z,9.63
2023-03-06T06:30:03.060Z,10.35
2023-03-06T06:35:02.320Z,9.38
2023-03-06T06:40:02.697Z,9.77
2023-03-06T06:45:02.941Z,9.27
2023-03-06T06:50:02.169Z,9.38
2023-03-06T06:55:02.387Z,9.32
2023-03-06T07:00:02.822Z,9.25
2023-03-06T07:05:05.282Z,8.32
2023-03-06T07:10:02.899Z,8.48
2023-03-06T07:15:03.200Z,8.05
2023-03-06T07:20:02.425Z,7.82
2023-03-06T07:25:02.708Z,7.97
2023-03-06T07:30:02.895Z,8.93
2023-03-06T07:35:19.077Z,7.95
2023-03-06T07:40:02.152Z,7.38
2023-03-06T07:45:02.569Z,6.70
2023-03-06T07:50:02.767Z,7.45
2023-03-06T07:55:02.999Z,7.32
2023-03-06T08:00:02.370Z,6.53
2023-03-06T08:05:02.573Z,7.03
2023-03-06T08:10:02.912Z,7.43
2023-03-06T08:15:03.175Z,7.40
2023-03-06T08:20:02.527Z,6.75
2023-03-06T08:25:02.910Z,7.72
2023-03-06T08:30:02.246Z,7.45
2023-03-06T08:35:02.563Z,7.50
2023-03-06T08:40:02.923Z,7.53
2023-03-06T08:45:02.249Z,7.28
2023-03-06T08:50:02.583Z,7.00
2023-03-06T08:55:02.968Z,7.22
2023-03-06T09:00:02.393Z,7.05
2023-03-06T09:05:03.047Z,6.68
2023-03-06T09:10:02.374Z,6.57
2023-03-06T09:15:02.668Z,5.75
2023-03-06T09:20:02.847Z,5.85
2023-03-06T09:25:03.098Z,4.30
2023-03-06T09:30:02.416Z,4.00
2023-03-06T09:35:02.983Z,4.25
2023-03-06T09:40:02.301Z,3.92
2023-03-06T09:45:02.576Z,3.92
2023-03-06T09:50:04.854Z,3.90
2023-03-06T09:55:13.238Z,0
2023-03-06T10:00:04.415Z,3.65
2023-03-06T10:05:03.033Z,3.42
2023-03-06T10:10:02.370Z,3.70
2023-03-06T10:15:02.550Z,2.90
2023-03-06T10:20:02.863Z,2.53
2023-03-06T10:25:03.278Z,2.50
2023-03-06T10:30:12.500Z,0
2023-03-06T10:35:02.765Z,2.05
2023-03-06T10:40:02.985Z,2.85
2023-03-06T10:45:02.279Z,2.42
2023-03-06T10:50:02.611Z,2.75
2023-03-06T10:55:02.877Z,2.65
2023-03-06T11:00:03.076Z,2.20
2023-03-06T11:05:02.457Z,2.58
2023-03-06T11:10:02.656Z,3.70
2023-03-06T11:15:05.967Z,2.72
2023-03-06T11:20:12.229Z,0
2023-03-06T11:25:02.578Z,2.00
2023-03-06T11:30:02.657Z,2.22
2023-03-06T11:35:02.786Z,1.60
2023-03-06T11:40:02.932Z,2.00
2023-03-06T11:45:03.353Z,1.60
2023-03-06T11:50:02.509Z,1.50
2023-03-06T11:55:02.672Z,1.70
2023-03-06T12:00:03.026Z,1.40
2023-03-06T12:05:12.226Z,0
2023-03-06T12:10:02.543Z,1.60
2023-03-06T12:15:02.787Z,1.40
2023-03-06T12:20:03.087Z,1.48
2023-03-06T12:25:02.472Z,1.50
2023-03-06T12:30:02.895Z,1.45
2023-03-06T12:35:04.763Z,1.30
2023-03-06T12:40:03.399Z,1.25
2023-03-06T12:45:02.768Z,1.40
2023-03-06T12:50:03.069Z,1.30
2023-03-06T12:55:02.425Z,1.27
2023-03-06T13:00:02.573Z,1.70
2023-03-06T13:05:12.918Z,0
2023-03-06T13:10:03.112Z,1.23
2023-03-06T13:15:02.287Z,1.20
2023-03-06T13:20:03.235Z,1.10
2023-03-06T13:25:11.260Z,1.10
2023-03-06T13:30:03.098Z,1.20
2023-03-06T13:35:03.690Z,1.00
2023-03-06T13:40:02.976Z,1.13
2023-03-06T13:45:03.206Z,1.23
2023-03-06T13:50:02.535Z,1.20
2023-03-06T13:55:03.348Z,1.15
2023-03-06T14:00:13.070Z,0
2023-03-06T14:05:02.604Z,1.30
2023-03-06T14:10:03.534Z,1.35
2023-03-06T14:15:04.740Z,1.30
2023-03-06T14:20:03.231Z,1.40
2023-03-06T14:25:03.060Z,1.33
2023-03-06T14:30:02.719Z,1.60
2023-03-06T14:35:04.446Z,1.75
2023-03-06T14:40:04.617Z,1.50
2023-03-06T14:45:02.930Z,1.50
2023-03-06T14:50:13.826Z,0
2023-03-06T14:55:03.674Z,1.60
2023-03-06T15:00:03.158Z,1.50
2023-03-06T15:05:02.641Z,1.52
2023-03-06T15:10:03.063Z,1.55
2023-03-06T15:15:03.484Z,1.90
2023-03-06T15:20:03.612Z,1.40
2023-03-06T15:25:03.412Z,1.70
2023-03-06T15:30:02.820Z,1.90
2023-03-06T15:35:04.098Z,3.15
2023-03-06T15:40:03.185Z,4.63
2023-03-06T15:45:02.599Z,6.05
2023-03-06T15:50:04.116Z,6.97
2023-03-06T15:55:02.478Z,6.63
2023-03-06T16:00:03.233Z,6.40
2023-03-06T16:05:03.897Z,5.50
2023-03-06T16:10:03.607Z,4.10
2023-03-06T16:15:02.856Z,4.00
2023-03-06T16:20:03.477Z,4.05
2023-03-06T16:25:03.224Z,3.75
2023-03-06T16:30:02.699Z,4.03
2023-03-06T16:35:04.116Z,4.90
2023-03-06T16:40:02.588Z,5.15
2023-03-06T16:45:03.339Z,5.40
2023-03-06T16:50:03.556Z,6.53
2023-03-06T16:55:03.229Z,6.25
2023-03-06T17:00:02.836Z,7.55
2023-03-06T17:05:03.175Z,6.93
2023-03-06T17:10:02.784Z,7.85
2023-03-06T17:15:03.111Z,9.70
2023-03-06T17:20:02.523Z,10.23
2023-03-06T17:25:06.122Z,13.75
2023-03-06T17:30:02.542Z,13.05
2023-03-06T17:35:03.323Z,14.75
2023-03-06T17:40:03.696Z,17.23
2023-03-06T17:45:03.128Z,17.05
2023-03-06T17:50:03.060Z,18.20
2023-03-06T17:55:02.460Z,17.40
2023-03-06T18:00:02.987Z,16.95
2023-03-06T18:05:02.543Z,16.88
2023-03-06T18:10:06.425Z,16.45
2023-03-06T18:15:02.979Z,16.63
2023-03-06T18:20:02.799Z,16.20
2023-03-06T18:25:03.233Z,17.65
2023-03-06T18:30:03.419Z,16.65
2023-03-06T18:35:03.004Z,16.75
2023-03-06T18:40:02.632Z,16.27
2023-03-06T18:45:03.320Z,16.92
2023-03-06T18:50:02.688Z,16.27
2023-03-06T18:55:03.263Z,18.63
2023-03-06T19:00:03.189Z,23.40
2023-03-06T19:05:03.246Z,24.10
2023-03-06T19:10:03.508Z,21.00
2023-03-06T19:15:02.734Z,19.98
2023-03-06T19:20:03.292Z,19.75
2023-03-06T19:25:06.888Z,20.52
2023-03-06T19:30:03.222Z,19.45
2023-03-06T19:35:03.212Z,21.65
2023-03-06T19:40:03.126Z,20.83
2023-03-06T19:45:02.487Z,22.05
2023-03-06T19:50:02.869Z,19.55
2023-03-06T19:55:04.593Z,21.65
2023-03-06T20:00:03.684Z,20.50
2023-03-06T20:05:03.135Z,22.02
2023-03-06T20:10:03.074Z,20.58
2023-03-06T20:15:02.477Z,21.77
2023-03-06T20:20:05.183Z,20.75
2023-03-06T20:25:02.879Z,21.70
2023-03-06T20:30:03.616Z,20.83
2023-03-06T20:35:03.103Z,17.00
2023-03-06T20:40:02.571Z,19.08
2023-03-06T20:45:03.276Z,19.77
2023-03-06T20:50:03.155Z,19.25
2023-03-06T20:55:03.028Z,18.67
2023-03-06T21:00:02.575Z,18.52
2023-03-06T21:05:02.904Z,18.90
2023-03-06T21:10:02.849Z,18.73
2023-03-06T21:15:03.250Z,17.95
2023-03-06T21:20:02.658Z,16.30
2023-03-06T21:25:03.082Z,18.38
2023-03-06T21:30:02.807Z,18.67
2023-03-06T21:35:03.406Z,16.75
2023-03-06T21:40:02.843Z,17.20
2023-03-06T21:45:03.267Z,18.80
2023-03-06T21:50:02.866Z,18.23
2023-03-06T21:55:03.910Z,16.13
2023-03-06T22:00:03.397Z,16.30
2023-03-06T22:05:22.365Z,16.52
2023-03-06T22:10:08.429Z,15.65
2023-03-06T22:15:08.455Z,16.58
2023-03-06T22:20:08.536Z,17.30
2023-03-06T22:25:08.596Z,16.63
2023-03-06T22:30:08.680Z,17.85
2023-03-06T22:35:08.910Z,15.02
2023-03-06T22:40:08.951Z,15.93
2023-03-06T22:45:07.985Z,16.05
2023-03-06T22:50:08.027Z,17.08
2023-03-06T22:55:08.115Z,13.60
2023-03-06T23:00:08.227Z,14.15
2023-03-06T23:05:08.269Z,15.18
2023-03-06T23:10:08.322Z,14.75
2023-03-06T23:15:08.433Z,14.60
2023-03-06T23:20:08.517Z,13.82
2023-03-06T23:25:08.580Z,12.40
2023-03-06T23:30:08.646Z,12.30
2023-03-06T23:35:08.730Z,12.05
2023-03-06T23:40:08.844Z,11.65
2023-03-06T23:45:08.911Z,11.20
2023-03-06T23:50:08.987Z,10.82
2023-03-06T23:55:08.081Z,10.32
